createdAt,value
2022-10-10T00:01:23.771Z,4.57
2022-10-10T00:03:50.603Z,4.45
2022-10-10T00:06:17.879Z,5.28
2022-10-10T00:08:45.447Z,5.30
2022-10-10T00:11:13.458Z,5.35
2022-10-10T00:13:40.724Z,6.80
2022-10-10T00:16:07.378Z,4.80
2022-10-10T00:18:34.497Z,4.85
2022-10-10T00:21:01.331Z,5.55
2022-10-10T00:23:28.218Z,4.40
2022-10-10T00:25:55.110Z,4.95
2022-10-10T00:28:21.968Z,5.05
2022-10-10T00:30:48.725Z,4.40
2022-10-10T00:33:15.427Z,5.32
2022-10-10T00:35:42.490Z,4.53
2022-10-10T00:38:09.448Z,5.13
2022-10-10T00:40:44.142Z,6.25
2022-10-10T00:43:13.442Z,4.82
2022-10-10T00:45:42.378Z,4.20
2022-10-10T00:48:13.878Z,3.70
2022-10-10T00:50:46.397Z,4.57
2022-10-10T00:53:17.308Z,4.45
2022-10-10T00:55:45.182Z,4.25
2022-10-10T00:58:12.608Z,4.78
2022-10-10T01:00:39.332Z,4.85
2022-10-10T01:03:05.989Z,4.97
2022-10-10T01:05:33.829Z,3.92
2022-10-10T01:08:02.294Z,4.78
2022-10-10T01:10:29.199Z,4.97
2022-10-10T01:12:58.510Z,5.00
2022-10-10T01:15:55.200Z,5.28
2022-10-10T01:18:27.590Z,5.82
2022-10-10T01:20:57.139Z,4.93
2022-10-10T01:23:29.809Z,4.95
2022-10-10T01:25:59.306Z,5.18
2022-10-10T01:28:50.073Z,5.63
2022-10-10T01:31:22.549Z,5.22
2022-10-10T01:34:17.181Z,5.15
2022-10-10T01:37:09.128Z,6.35
2022-10-10T01:40:12.573Z,5.00
2022-10-10T01:42:42.030Z,5.68
2022-10-10T01:45:09.488Z,5.03
2022-10-10T01:47:36.131Z,6.50
2022-10-10T01:50:09.268Z,5.15
2022-10-10T01:53:16.946Z,5.60
2022-10-10T01:55:54.955Z,5.82
2022-10-10T01:58:45.531Z,5.65
2022-10-10T02:01:37.092Z,6.10
2022-10-10T02:04:30.213Z,6.75
2022-10-10T02:07:06.634Z,6.18
2022-10-10T02:09:42.650Z,6.60
2022-10-10T02:12:12.549Z,6.35
2022-10-10T02:14:50.670Z,5.97
2022-10-10T02:17:18.398Z,6.55
2022-10-10T02:19:50.993Z,5.93
2022-10-10T02:22:20.876Z,6.88
2022-10-10T02:24:47.760Z,5.75
2022-10-10T02:27:23.782Z,6.18
2022-10-10T02:29:52.675Z,5.82
2022-10-10T02:32:31.658Z,5.25
2022-10-10T02:35:05.824Z,5.38
2022-10-10T02:37:33.210Z,5.90
2022-10-10T02:40:02.547Z,5.53
2022-10-10T02:42:30.106Z,6.07
2022-10-10T02:44:57.611Z,5.95
2022-10-10T02:47:24.433Z,6.30
2022-10-10T02:49:51.240Z,5.93
2022-10-10T02:52:18.363Z,5.88
2022-10-10T02:54:44.929Z,6.25
2022-10-10T02:57:12.285Z,5.75
2022-10-10T02:59:38.925Z,7.32
2022-10-10T03:02:06.386Z,6.18
2022-10-10T03:04:33.073Z,6.38
2022-10-10T03:06:59.712Z,6.78
2022-10-10T03:09:26.331Z,7.50
2022-10-10T03:11:52.992Z,6.63
2022-10-10T03:14:19.603Z,6.43
2022-10-10T03:16:46.249Z,6.95
2022-10-10T03:19:12.846Z,6.60
2022-10-10T03:21:39.625Z,6.07
2022-10-10T03:24:06.370Z,6.03
2022-10-10T03:26:32.988Z,7.07
2022-10-10T03:29:02.222Z,5.70
2022-10-10T03:31:29.314Z,6.05
2022-10-10T03:33:55.842Z,6.35
2022-10-10T03:36:23.185Z,6.60
2022-10-10T03:38:49.776Z,6.47
2022-10-10T03:41:16.389Z,5.57
2022-10-10T03:43:43.000Z,5.50
2022-10-10T03:46:15.083Z,6.43
2022-10-10T03:48:43.092Z,6.20
2022-10-10T03:51:09.891Z,6.00
2022-10-10T03:53:37.122Z,6.68
2022-10-10T03:56:04.181Z,5.95
2022-10-10T03:58:31.044Z,7.30
2022-10-10T04:01:00.765Z,6.88
2022-10-10T04:03:28.187Z,6.55
2022-10-10T04:05:55.191Z,6.55
2022-10-10T04:08:21.851Z,6.65
2022-10-10T04:10:52.949Z,6.22
2022-10-10T04:13:21.110Z,6.28
2022-10-10T04:15:51.944Z,6.43
2022-10-10T04:18:19.506Z,6.80
2022-10-10T04:20:46.093Z,6.03
2022-10-10T04:23:12.786Z,5.68
2022-10-10T04:25:39.536Z,6.32
2022-10-10T04:28:06.258Z,6.57
2022-10-10T04:30:34.713Z,5.88
2022-10-10T04:33:01.608Z,6.30
2022-10-10T04:35:28.318Z,5.95
2022-10-10T04:37:55.051Z,6.30
2022-10-10T04:40:26.386Z,5.82
2022-10-10T04:42:54.775Z,5.50
2022-10-10T04:45:21.669Z,5.85
2022-10-10T04:47:48.469Z,5.68
2022-10-10T04:50:15.125Z,6.13
2022-10-10T04:52:41.910Z,5.60
2022-10-10T04:55:08.711Z,6.20
2022-10-10T04:57:35.364Z,6.57
2022-10-10T05:00:03.071Z,5.80
2022-10-10T05:02:29.737Z,6.00
2022-10-10T05:04:56.318Z,6.53
2022-10-10T05:07:23.923Z,6.88
2022-10-10T05:09:50.724Z,6.82
2022-10-10T05:12:17.385Z,7.57
2022-10-10T05:14:47.910Z,6.32
2022-10-10T05:17:15.344Z,6.18
2022-10-10T05:19:41.909Z,6.90
2022-10-10T05:22:08.565Z,6.13
2022-10-10T05:24:35.155Z,6.07
2022-10-10T05:27:01.767Z,6.03
2022-10-10T05:29:28.497Z,6.38
2022-10-10T05:31:55.246Z,6.43
2022-10-10T05:34:21.911Z,6.53
2022-10-10T05:36:48.600Z,5.93
2022-10-10T05:39:15.249Z,6.22
2022-10-10T05:41:41.877Z,5.43
2022-10-10T05:44:09.221Z,5.88
2022-10-10T05:46:35.903Z,5.80
2022-10-10T05:49:02.484Z,6.18
2022-10-10T05:51:29.167Z,7.00
2022-10-10T05:53:57.417Z,6.18
2022-10-10T05:56:24.122Z,6.70
2022-10-10T05:58:51.576Z,6.70
2022-10-10T06:01:18.578Z,6.90
2022-10-10T06:03:45.160Z,5.60
2022-10-10T06:06:11.810Z,6.70
2022-10-10T06:08:38.469Z,6.75
2022-10-10T06:11:11.169Z,6.05
2022-10-10T06:13:38.626Z,6.55
2022-10-10T06:16:05.297Z,6.32
2022-10-10T06:18:31.960Z,6.60
2022-10-10T06:21:02.946Z,6.78
2022-10-10T06:23:29.594Z,5.78
2022-10-10T06:25:56.260Z,5.63
2022-10-10T06:28:23.323Z,6.68
2022-10-10T06:30:51.260Z,5.40
2022-10-10T06:33:19.352Z,5.72
2022-10-10T06:35:48.472Z,6.80
2022-10-10T06:38:16.500Z,5.72
2022-10-10T06:40:43.477Z,4.93
2022-10-10T06:43:12.337Z,6.57
2022-10-10T06:45:40.976Z,6.38
2022-10-10T06:48:08.942Z,5.97
2022-10-10T06:50:35.876Z,7.55
2022-10-10T06:53:02.573Z,7.80
2022-10-10T06:55:29.338Z,8.38
2022-10-10T06:57:56.086Z,6.55
2022-10-10T07:00:22.883Z,7.57
2022-10-10T07:02:49.960Z,8.20
2022-10-10T07:05:18.139Z,6.70
2022-10-10T07:07:45.278Z,6.47
2022-10-10T07:10:14.167Z,7.28
2022-10-10T07:12:44.705Z,7.05
2022-10-10T07:15:12.646Z,6.28
2022-10-10T07:17:39.484Z,7.15
2022-10-10T07:20:07.127Z,6.40
2022-10-10T07:22:33.892Z,6.35
2022-10-10T07:25:00.560Z,5.82
2022-10-10T07:27:27.414Z,6.38
2022-10-10T07:29:54.194Z,6.43
2022-10-10T07:32:20.791Z,7.15
2022-10-10T07:34:47.439Z,6.45
2022-10-10T07:37:14.028Z,7.18
2022-10-10T07:39:40.762Z,7.40
2022-10-10T07:42:07.446Z,6.35
2022-10-10T07:44:34.820Z,7.00
2022-10-10T07:47:01.879Z,6.18
2022-10-10T07:49:28.811Z,6.68
2022-10-10T07:52:00.550Z,7.85
2022-10-10T07:54:31.807Z,7.47
2022-10-10T07:56:59.191Z,8.27
2022-10-10T07:59:26.117Z,8.75
2022-10-10T08:01:53.018Z,6.75
2022-10-10T08:04:20.275Z,8.10
2022-10-10T08:06:46.981Z,7.53
2022-10-10T08:09:13.623Z,7.70
2022-10-10T08:11:40.426Z,7.18
2022-10-10T08:14:06.988Z,7.07
2022-10-10T08:16:33.697Z,6.97
2022-10-10T08:19:00.288Z,8.98
2022-10-10T08:21:27.050Z,7.13
2022-10-10T08:23:53.642Z,7.25
2022-10-10T08:26:20.503Z,7.57
2022-10-10T08:28:48.682Z,8.07
2022-10-10T08:31:19.536Z,8.75
2022-10-10T08:33:47.789Z,7.85
2022-10-10T08:36:18.364Z,7.78
2022-10-10T08:38:45.653Z,7.32
2022-10-10T08:41:26.213Z,7.13
2022-10-10T08:43:58.367Z,7.32
2022-10-10T08:46:43.688Z,6.43
2022-10-10T08:49:30.682Z,8.80
2022-10-10T08:52:08.054Z,7.50
2022-10-10T08:54:37.338Z,7.93
2022-10-10T08:57:06.894Z,8.02
2022-10-10T08:59:38.515Z,7.25
2022-10-10T09:02:43.551Z,7.57
2022-10-10T09:05:18.472Z,7.50
2022-10-10T09:08:00.266Z,7.22
2022-10-10T09:10:49.929Z,8.40
2022-10-10T09:13:25.398Z,6.43
2022-10-10T09:15:57.599Z,7.93
2022-10-10T09:18:43.043Z,7.22
2022-10-10T09:21:22.148Z,7.45
2022-10-10T09:24:05.515Z,8.50
2022-10-10T09:26:47.888Z,7.97
2022-10-10T09:29:23.723Z,7.65
2022-10-10T09:31:56.797Z,8.27
2022-10-10T09:34:38.617Z,6.65
2022-10-10T09:37:24.206Z,7.38
2022-10-10T09:40:03.266Z,7.53
2022-10-10T09:42:38.665Z,6.25
2022-10-10T09:45:37.522Z,7.10
2022-10-10T09:48:04.663Z,8.25
2022-10-10T09:50:31.403Z,7.13
2022-10-10T09:52:58.417Z,6.50
2022-10-10T09:55:30.518Z,7.43
2022-10-10T09:58:04.017Z,6.85
2022-10-10T10:00:36.562Z,6.78
2022-10-10T10:03:12.606Z,8.85
2022-10-10T10:05:41.826Z,7.57
2022-10-10T10:08:35.452Z,8.82
2022-10-10T10:11:04.170Z,9.05
2022-10-10T10:13:36.387Z,7.68
2022-10-10T10:16:36.650Z,8.32
2022-10-10T10:19:04.703Z,7.80
2022-10-10T10:21:32.296Z,9.32
2022-10-10T10:23:58.949Z,8.60
2022-10-10T10:26:51.134Z,8.32
2022-10-10T10:29:31.606Z,8.45
2022-10-10T10:32:18.954Z,8.82
2022-10-10T10:34:57.684Z,8.70
2022-10-10T10:37:36.016Z,7.53
2022-10-10T10:40:04.358Z,7.80
2022-10-10T10:42:42.680Z,7.93
2022-10-10T10:45:28.983Z,7.18
2022-10-10T10:48:23.141Z,6.82
2022-10-10T10:50:55.583Z,7.38
2022-10-10T10:53:36.130Z,6.50
2022-10-10T10:56:46.667Z,7.50
2022-10-10T11:00:26.868Z,7.43
2022-10-10T11:02:59.759Z,7.07
2022-10-10T11:08:33.710Z,6.45
2022-10-10T11:11:09.078Z,6.35
2022-10-10T11:14:00.419Z,6.43
2022-10-10T11:16:47.485Z,6.63
2022-10-10T11:19:15.390Z,7.22
2022-10-10T11:21:49.560Z,6.25
2022-10-10T11:24:33.694Z,6.22
2022-10-10T11:27:07.495Z,7.25
2022-10-10T11:29:51.190Z,5.60
2022-10-10T11:32:43.121Z,7.45
2022-10-10T11:35:36.682Z,6.75
2022-10-10T11:38:12.770Z,6.32
2022-10-10T11:40:55.282Z,6.47
2022-10-10T11:43:35.032Z,6.10
2022-10-10T11:46:39.421Z,6.90
2022-10-10T11:49:14.184Z,6.80
2022-10-10T11:52:32.033Z,5.68
2022-10-10T11:55:03.891Z,7.07
2022-10-10T11:57:47.875Z,7.47
2022-10-10T12:00:17.896Z,6.75
2022-10-10T12:02:47.254Z,6.47
2022-10-10T12:05:26.186Z,5.97
2022-10-10T12:08:21.966Z,6.15
2022-10-10T12:10:58.701Z,7.03
2022-10-10T12:13:34.206Z,6.35
2022-10-10T12:18:53.111Z,6.78
2022-10-10T12:21:22.702Z,6.50
2022-10-10T12:23:57.412Z,5.88
2022-10-10T12:26:24.458Z,6.40
2022-10-10T12:29:10.425Z,6.57
2022-10-10T12:34:10.435Z,6.55
2022-10-10T12:36:40.083Z,7.05
2022-10-10T12:39:07.873Z,6.90
2022-10-10T12:41:47.205Z,5.20
2022-10-10T12:44:23.690Z,6.15
2022-10-10T12:48:04.428Z,6.22
2022-10-10T12:50:37.005Z,6.75
2022-10-10T12:53:12.446Z,6.90
2022-10-10T12:55:46.956Z,6.95
2022-10-10T12:58:28.375Z,6.10
2022-10-10T13:01:01.309Z,7.18
2022-10-10T13:03:44.548Z,6.00
2022-10-10T13:06:40.364Z,6.72
2022-10-10T13:09:10.950Z,6.28
2022-10-10T13:12:29.821Z,6.25
2022-10-10T13:14:57.530Z,6.00
2022-10-10T13:17:32.031Z,7.13
2022-10-10T13:20:00.888Z,6.63
2022-10-10T13:22:30.096Z,6.55
2022-10-10T13:24:58.252Z,6.28
2022-10-10T13:27:35.153Z,6.25
2022-10-10T13:30:02.588Z,6.45
2022-10-10T13:32:33.375Z,6.45
2022-10-10T13:35:06.480Z,7.57
2022-10-10T13:37:33.913Z,7.55
2022-10-10T13:40:01.261Z,6.22
2022-10-10T13:42:33.123Z,6.38
2022-10-10T13:45:01.400Z,6.03
2022-10-10T13:47:40.085Z,6.53
2022-10-10T13:50:20.835Z,6.60
2022-10-10T13:52:47.517Z,6.07
2022-10-10T13:55:20.771Z,5.75
2022-10-10T13:57:51.504Z,6.45
2022-10-10T14:00:24.944Z,6.65
2022-10-10T14:02:51.765Z,6.70
2022-10-10T14:05:29.526Z,6.13
2022-10-10T14:07:57.636Z,6.45
2022-10-10T14:10:27.344Z,7.07
2022-10-10T14:13:00.558Z,6.40
2022-10-10T14:15:42.461Z,6.97
2022-10-10T14:18:24.584Z,6.68
2022-10-10T14:20:53.580Z,7.05
2022-10-10T14:23:20.332Z,7.43
2022-10-10T14:25:49.244Z,7.28
2022-10-10T14:28:19.993Z,6.72
2022-10-10T14:30:48.098Z,7.60
2022-10-10T14:33:18.252Z,7.32
2022-10-10T14:35:46.700Z,7.32
2022-10-10T14:38:15.079Z,6.45
2022-10-10T14:40:45.065Z,6.95
2022-10-10T14:43:12.357Z,7.97
2022-10-10T14:45:39.363Z,7.55
2022-10-10T14:48:06.480Z,7.70
2022-10-10T14:50:38.306Z,7.63
2022-10-10T14:53:05.090Z,7.88
2022-10-10T14:55:31.721Z,5.97
2022-10-10T14:58:01.157Z,7.15
2022-10-10T15:00:34.340Z,6.97
2022-10-10T15:03:10.273Z,6.72
2022-10-10T15:05:36.964Z,7.35
2022-10-10T15:08:10.176Z,6.55
2022-10-10T15:10:37.178Z,7.60
2022-10-10T15:13:03.778Z,7.60
2022-10-10T15:15:30.704Z,6.70
2022-10-10T15:18:52.669Z,8.13
2022-10-10T15:21:15.794Z,8.05
2022-10-10T15:24:01.013Z,7.65
2022-10-10T15:26:35.094Z,7.20
2022-10-10T15:29:17.576Z,7.95
2022-10-10T15:31:51.169Z,7.50
2022-10-10T15:34:37.682Z,8.25
2022-10-10T15:37:15.524Z,8.40
2022-10-10T15:39:51.905Z,8.15
2022-10-10T15:42:34.008Z,7.75
2022-10-10T15:45:03.168Z,7.40
2022-10-10T15:47:29.859Z,6.80
2022-10-10T15:49:56.636Z,6.43
2022-10-10T15:52:23.345Z,8.40
2022-10-10T15:54:50.194Z,7.50
2022-10-10T15:57:18.689Z,7.95
2022-10-10T15:59:46.604Z,7.47
2022-10-10T16:02:13.726Z,6.97
2022-10-10T16:04:40.679Z,7.20
2022-10-10T16:09:54.334Z,8.15
2022-10-10T16:12:21.266Z,6.75
2022-10-10T16:14:48.034Z,7.72
2022-10-10T16:17:15.986Z,6.97
2022-10-10T16:19:44.216Z,6.80
2022-10-10T16:22:10.842Z,6.30
2022-10-10T16:24:37.536Z,7.03
2022-10-10T16:27:04.156Z,7.10
2022-10-10T16:29:31.006Z,7.78
2022-10-10T16:31:57.916Z,8.60
2022-10-10T16:34:24.669Z,7.70
2022-10-10T16:36:51.302Z,8.00
2022-10-10T16:39:18.000Z,9.00
2022-10-10T16:41:48.986Z,8.15
2022-10-10T16:44:17.366Z,8.88
2022-10-10T16:46:44.557Z,8.00
2022-10-10T16:49:13.278Z,8.30
2022-10-10T16:51:40.234Z,8.30
2022-10-10T16:54:07.323Z,7.18
2022-10-10T16:56:34.940Z,7.13
2022-10-10T16:59:02.277Z,7.75
2022-10-10T17:01:29.293Z,8.10
2022-10-10T17:04:00.000Z,6.43
2022-10-10T17:06:32.632Z,5.82
2022-10-10T17:09:02.994Z,7.18
2022-10-10T17:11:29.643Z,6.07
2022-10-10T17:13:56.525Z,6.75
2022-10-10T17:19:12.298Z,7.20
2022-10-10T17:21:38.944Z,8.20
2022-10-10T17:24:05.820Z,6.85
2022-10-10T17:26:32.474Z,7.55
2022-10-10T17:28:59.756Z,8.52
2022-10-10T17:31:27.303Z,8.90
2022-10-10T17:33:55.018Z,10.52
2022-10-10T17:36:23.931Z,11.65
2022-10-10T17:38:51.196Z,8.07
2022-10-10T17:41:18.712Z,7.45
2022-10-10T17:43:45.833Z,7.40
2022-10-10T17:46:34.249Z,7.35
2022-10-10T17:49:06.181Z,6.95
2022-10-10T17:51:34.129Z,7.95
2022-10-10T17:54:01.860Z,6.82
2022-10-10T17:56:29.009Z,6.97
2022-10-10T17:58:55.836Z,6.88
2022-10-10T18:01:23.114Z,7.40
2022-10-10T18:03:49.901Z,6.32
2022-10-10T18:06:20.360Z,7.57
2022-10-10T18:08:48.066Z,6.60
2022-10-10T18:11:17.201Z,7.93
2022-10-10T18:13:44.715Z,7.45
2022-10-10T18:16:17.659Z,6.75
2022-10-10T18:18:50.632Z,7.05
2022-10-10T18:21:19.747Z,7.13
2022-10-10T18:23:46.349Z,6.50
2022-10-10T18:26:16.532Z,6.25
2022-10-10T18:28:43.517Z,7.20
2022-10-10T18:31:14.459Z,7.40
2022-10-10T18:33:42.194Z,6.68
2022-10-10T18:36:09.692Z,7.80
2022-10-10T18:38:37.651Z,6.63
2022-10-10T18:41:10.520Z,8.40
2022-10-10T18:43:38.419Z,8.60
2022-10-10T18:46:07.764Z,8.85
2022-10-10T18:48:35.363Z,8.52
2022-10-10T18:51:09.038Z,8.18
2022-10-10T18:53:37.349Z,7.63
2022-10-10T18:56:04.385Z,7.97
2022-10-10T18:58:31.722Z,8.95
2022-10-10T19:01:00.546Z,8.35
2022-10-10T19:03:28.464Z,8.23
2022-10-10T19:05:55.096Z,8.52
2022-10-10T19:08:21.942Z,8.40
2022-10-10T19:10:50.018Z,9.05
2022-10-10T19:13:17.941Z,8.82
2022-10-10T19:15:44.652Z,9.85
2022-10-10T19:18:11.438Z,8.05
2022-10-10T19:20:39.179Z,8.38
2022-10-10T19:23:06.618Z,8.82
2022-10-10T19:25:40.351Z,7.40
2022-10-10T19:28:07.722Z,8.48
2022-10-10T19:30:42.384Z,7.43
2022-10-10T19:33:09.699Z,6.57
2022-10-10T19:35:38.153Z,7.35
2022-10-10T19:38:06.351Z,6.78
2022-10-10T19:40:36.816Z,6.50
2022-10-10T19:43:03.579Z,7.10
2022-10-10T19:45:30.141Z,10.30
2022-10-10T19:47:56.864Z,10.40
2022-10-10T19:50:23.463Z,9.30
2022-10-10T19:52:50.079Z,9.73
2022-10-10T19:55:18.901Z,8.30
2022-10-10T19:57:45.700Z,6.80
2022-10-10T20:00:12.968Z,7.72
2022-10-10T20:02:39.714Z,6.22
2022-10-10T20:05:12.283Z,6.53
2022-10-10T20:07:39.153Z,7.43
2022-10-10T20:10:06.765Z,9.25
2022-10-10T20:12:34.564Z,9.52
2022-10-10T20:15:01.119Z,7.18
2022-10-10T20:17:28.613Z,6.38
2022-10-10T20:19:56.191Z,6.38
2022-10-10T20:22:23.085Z,5.55
2022-10-10T20:24:49.721Z,5.68
2022-10-10T20:27:16.477Z,6.03
2022-10-10T20:29:43.156Z,5.82
2022-10-10T20:32:10.211Z,6.03
2022-10-10T20:34:37.097Z,6.03
2022-10-10T20:37:04.367Z,7.53
2022-10-10T20:39:30.988Z,7.68
2022-10-10T20:41:57.664Z,7.45
2022-10-10T20:44:27.703Z,8.50
2022-10-10T20:46:54.810Z,9.23
2022-10-10T20:49:22.910Z,9.32
2022-10-10T20:51:52.138Z,9.65
2022-10-10T20:54:22.217Z,8.65
2022-10-10T20:56:49.868Z,7.63
2022-10-10T20:59:18.123Z,8.30
2022-10-10T21:01:47.838Z,8.07
2022-10-10T21:04:14.913Z,7.18
2022-10-10T21:06:44.950Z,7.10
2022-10-10T21:09:14.029Z,6.88
2022-10-10T21:11:41.185Z,6.70
2022-10-10T21:14:08.373Z,6.70
2022-10-10T21:16:39.128Z,6.05
2022-10-10T21:19:07.318Z,6.20
2022-10-10T21:21:36.041Z,6.22
2022-10-10T21:24:05.962Z,5.90
2022-10-10T21:26:33.215Z,6.80
2022-10-10T21:29:01.186Z,6.45
2022-10-10T21:31:32.640Z,6.18
2022-10-10T21:34:02.322Z,6.30
2022-10-10T21:36:30.654Z,5.65
2022-10-10T21:38:59.139Z,6.35
2022-10-10T21:41:26.397Z,7.45
2022-10-10T21:43:57.315Z,7.70
2022-10-10T21:46:34.722Z,7.63
2022-10-10T21:49:05.596Z,9.00
2022-10-10T21:51:35.978Z,7.93
2022-10-10T21:54:02.827Z,6.57
2022-10-10T21:56:29.389Z,6.00
2022-10-10T21:59:00.271Z,5.85
2022-10-10T22:01:27.993Z,5.20
2022-10-10T22:03:56.333Z,6.35
2022-10-10T22:06:24.761Z,5.65
2022-10-10T22:08:55.810Z,6.13
2022-10-10T22:11:25.335Z,6.18
2022-10-10T22:13:52.630Z,6.30
2022-10-10T22:16:19.948Z,5.97
2022-10-10T22:18:46.556Z,5.07
2022-10-10T22:21:15.727Z,5.22
2022-10-10T22:23:43.524Z,5.75
2022-10-10T22:26:12.795Z,5.47
2022-10-10T22:28:39.479Z,5.97
2022-10-10T22:31:11.646Z,5.43
2022-10-10T22:33:38.644Z,5.35
2022-10-10T22:36:06.883Z,6.40
2022-10-10T22:38:37.855Z,6.55
2022-10-10T22:41:04.559Z,5.78
2022-10-10T22:43:31.303Z,6.10
2022-10-10T22:45:58.108Z,6.15
2022-10-10T22:48:25.306Z,6.50
2022-10-10T22:51:07.285Z,6.15
2022-10-10T22:53:33.951Z,6.25
2022-10-10T22:56:00.554Z,5.18
2022-10-10T22:58:27.305Z,6.13
2022-10-10T23:00:54.068Z,5.65
2022-10-10T23:03:20.781Z,5.53
2022-10-10T23:05:47.467Z,5.28
2022-10-10T23:08:14.360Z,5.88
2022-10-10T23:10:40.951Z,5.50
2022-10-10T23:13:07.581Z,4.75
2022-10-10T23:15:34.188Z,5.30
2022-10-10T23:18:00.919Z,5.85
2022-10-10T23:20:27.595Z,5.00
2022-10-10T23:22:54.767Z,5.72
2022-10-10T23:25:21.552Z,5.25
2022-10-10T23:27:48.261Z,4.72
2022-10-10T23:30:15.165Z,5.60
2022-10-10T23:32:41.988Z,6.38
2022-10-10T23:35:09.253Z,5.97
2022-10-10T23:37:35.893Z,6.28
2022-10-10T23:40:02.529Z,5.65
2022-10-10T23:42:29.168Z,5.78
2022-10-10T23:44:55.743Z,5.80
2022-10-10T23:47:22.376Z,5.97
2022-10-10T23:49:48.926Z,5.78
2022-10-10T23:52:15.869Z,7.72
2022-10-10T23:54:42.493Z,7.07
2022-10-10T23:57:09.188Z,9.45
2022-10-10T23:59:35.869Z,9.40
